Currently 80°F in Murrieta, California, USA
80°F
80°F / 38°F
5 mph S
0.00"
Thursday, December 14, 2017 12:57 PM PST

Murrieta, California Weather Summary
Last 36 Hours

Temperature Winds Hourly Humidity Dewpoint
Time Report Norm Report Norm Max Gusts Precip. Rpt. Norm Rpt. Norm Pressure
1Thu 12:57 PM  79.6°F  65°F  5 mph S  4 mph  12 mph  0.00"  11%  48%  18°F  44°F  30.03"
2Thu 12:36 PM  80.2°F  65°F  5 mph SW  4 mph  10 mph  ----  12%  49%  22°F  44°F  30.03"
Thu 12:00 PM  75.3°F  64°F  calm  4 mph  10 mph  0.00"  16%  51%  25°F  45°F  30.04"
Thu 11:00 AM  70.1°F  61°F  calm  3 mph  7 mph  0.00"  19%  57%  24°F  45°F  30.06"
Thu 10:00 AM  62.4°F  56°F  calm  2 mph  4 mph  0.00"  27%  67%  26°F  45°F  30.09"
Thu 09:00 AM  50.9°F  52°F  calm  2 mph  5 mph  0.00"  41%  77%  27°F  44°F  30.08"
Thu 08:00 AM  42.3°F  46°F  calm  1 mph  4 mph  0.00"  51%  84%  25°F  41°F  30.06"
Thu 07:00 AM  38.5°F  44°F  calm  1 mph  2 mph  0.00"  51%  85%  21°F  39°F  30.05"
3Thu 06:57 AM  38.4°F  44°F  1 mph NW  1 mph  2 mph  ----  51%  85%  21°F  39°F  30.05"
Thu 06:00 AM  38.9°F  44°F  calm  1 mph  6 mph  0.00"  53%  84%  22°F  39°F  30.03"
Thu 05:00 AM  39.9°F  44°F  calm  1 mph  3 mph  0.00"  48%  84%  21°F  40°F  30.01"
Thu 04:00 AM  40.4°F  45°F  calm  1 mph  7 mph  0.00"  49%  83%  22°F  40°F  29.99"
Thu 03:00 AM  43.7°F  46°F  calm  1 mph  3 mph  0.00"  39%  82%  19°F  40°F  30.00"
Thu 02:00 AM  44.3°F  46°F  calm  1 mph  none  0.00"  37%  81%  19°F  40°F  30.00"
Thu 01:00 AM  47.4°F  47°F  calm  1 mph  8 mph  0.00"  34%  81%  19°F  41°F  30.01"
Thu 12:00 AM  48.5°F  48°F  calm  1 mph  9 mph  0.00"  32%  79%  19°F  41°F  30.03"
Wed 11:00 PM  48.8°F  49°F  calm  1 mph  2 mph  0.00"  33%  77%  20°F  41°F  30.03"
Wed 10:00 PM  51.9°F  50°F  calm  1 mph  4 mph  0.00"  29%  76%  19°F  42°F  30.03"
Wed 09:00 PM  55.6°F  51°F  2 mph SW  2 mph  7 mph  0.00"  24%  74%  18°F  42°F  30.03"
Wed 08:00 PM  56.3°F  52°F  calm  2 mph  11 mph  0.00"  25%  72%  20°F  43°F  30.02"
Wed 07:00 PM  59.4°F  53°F  4 mph W  2 mph  9 mph  0.00"  21%  70%  18°F  43°F  30.02"
Wed 06:00 PM  63.3°F  55°F  5 mph SW  3 mph  10 mph  0.00"  18%  66%  17°F  44°F  29.99"
Wed 05:00 PM  69.3°F  58°F  1 mph W  3 mph  9 mph  0.00"  15%  62%  17°F  44°F  29.98"
Wed 04:00 PM  73.6°F  61°F  4 mph W  4 mph  10 mph  0.00"  12%  55%  16°F  44°F  29.97"
Wed 03:00 PM  82.4°F  65°F  calm  4 mph  6 mph  0.00"  9%  49%  16°F  44°F  29.97"
Wed 02:00 PM  83.3°F  66°F  calm  4 mph  7 mph  0.00"  7%  46%  11°F  44°F  29.98"
Wed 01:00 PM  82.5°F  65°F  1 mph NW  4 mph  8 mph  0.00"  7%  48%  11°F  44°F  29.99"
Wed 12:00 PM  77.1°F  64°F  calm  4 mph  3 mph  0.00"  14%  51%  22°F  45°F  30.02"
Wed 11:00 AM  69.6°F  61°F  calm  3 mph  5 mph  0.00"  18%  56%  23°F  45°F  30.06"
Wed 10:00 AM  63.9°F  57°F  calm  2 mph  1 mph  0.00"  23%  67%  24°F  45°F  30.10"
Wed 09:00 AM  54.8°F  52°F  calm  2 mph  2 mph  0.00"  29%  77%  22°F  44°F  30.10"
Wed 08:00 AM  44.4°F  46°F  calm  1 mph  none  0.00"  47%  84%  24°F  42°F  30.10"
Wed 07:00 AM  38.3°F  44°F  calm  1 mph  none  0.00"  42%  86%  16°F  40°F  30.10"
Wed 06:00 AM  39.5°F  44°F  calm  1 mph  none  0.00"  41%  85%  17°F  40°F  30.09"
Wed 05:00 AM  42.8°F  45°F  calm  1 mph  none  0.00"  35%  84%  16°F  40°F  30.07"
Wed 04:00 AM  43.5°F  45°F  calm  1 mph  none  0.00"  31%  83%  14°F  40°F  30.08"
Wed 03:00 AM  43.8°F  46°F  calm  1 mph  3 mph  0.00"  29%  82%  12°F  40°F  30.09"
Wed 02:00 AM  45.4°F  46°F  calm  1 mph  none  0.00"  25%  82%  10°F  41°F  30.10"
Wed 01:00 AM  46.1°F  47°F  calm  1 mph  2 mph  0.00"  31%  81%  16°F  41°F  30.09"

  1. Current weather data. No green row appears if the current weather data is also the high or low for the current day.
  2. High temperature for the current day.
  3. Low temperature for the current day.

The Murrieta weather pages are a service of WeatherCurrents. Murrieta, California is located in the Temecula Valley, in southwestern Riverside County, at the junctions of the Interstate 15 and 215 highways.
Copyright ©Thu Dec 14 12:58:02 PST 2017  WeatherCurrents. All rights reserved. - Submit questions and comments - Privacy Policy

This page automatically refreshes every 10 minutes.